Time;durP1;ratioP1;P1;durP2;ratioP2;P2;SDS_P1;SDS_P2;PMS_P1;PMS_P2;Temp;Humidity;BMP_temperature;BMP_pressure;BME280_temperature;BME280_humidity;BME280_pressure;Samples;Min_cycle;Max_cycle;Signal;HPM_P1;HPM_P2
2023/08/10 00:01:41;;;;;;;4.05;2.72;;;;;;;14.41;100.00;102103.34;10496485;28;20040;-69
2023/08/10 00:06:41;;;;;;;9.38;3.25;;;;;;;14.56;100.00;102100.63;10496105;28;20516;-69
2023/08/10 00:11:41;;;;;;;4.55;3.05;;;;;;;14.65;100.00;102102.19;10496580;28;20043;-69
2023/08/10 00:16:43;;;;;;;5.65;2.92;;;;;;;14.64;100.00;102095.06;10495960;28;20040;-69
2023/08/10 00:21:43;;;;;;;3.10;2.80;;;;;;;14.54;100.00;102096.41;10502242;28;20467;-69
2023/08/10 00:26:43;;;;;;;5.93;2.63;;;;;;;14.52;100.00;102096.59;10503625;28;20044;-70
2023/08/10 00:31:44;;;;;;;4.13;2.83;;;;;;;14.63;100.00;102093.34;10503504;28;20434;-69
2023/08/10 00:36:44;;;;;;;12.68;2.80;;;;;;;14.82;100.00;102086.38;10501644;28;20036;-69
2023/08/10 00:41:45;;;;;;;3.03;2.72;;;;;;;14.92;100.00;102090.66;10502023;28;20110;-69
2023/08/10 00:46:45;;;;;;;2.28;2.13;;;;;;;14.86;100.00;102086.81;10503753;28;20053;-69
2023/08/10 00:51:45;;;;;;;2.20;2.00;;;;;;;14.78;100.00;102081.53;10502171;28;20040;-69
2023/08/10 00:56:46;;;;;;;20.98;3.22;;;;;;;14.71;100.00;102089.66;10501708;28;20032;-69
2023/08/10 01:01:46;;;;;;;3.15;2.53;;;;;;;14.63;100.00;102087.88;10484019;28;20029;-69
2023/08/10 01:06:52;;;;;;;5.47;2.60;;;;;;;14.51;100.00;102092.16;10502263;28;20025;-69
2023/08/10 01:12:07;;;;;;;5.38;2.75;;;;;;;14.38;100.00;102092.84;10500593;28;20036;-69
2023/08/10 01:17:18;;;;;;;4.55;2.17;;;;;;;14.38;100.00;102102.91;10500048;28;20525;-69
2023/08/10 01:22:38;;;;;;;10.30;2.75;;;;;;;14.39;100.00;102088.25;10501656;28;20029;-69
2023/08/10 01:27:39;;;;;;;5.22;2.53;;;;;;;14.28;100.00;102089.59;10501567;28;20033;-69
2023/08/10 01:32:40;;;;;;;5.15;2.58;;;;;;;14.15;100.00;102087.56;10498698;28;20455;-69
2023/08/10 01:37:40;;;;;;;2.05;1.95;;;;;;;14.03;100.00;102085.53;10500291;28;20055;-69
2023/08/10 01:42:42;;;;;;;3.28;2.38;;;;;;;13.92;100.00;102076.81;10500902;28;20106;-70
2023/08/10 01:47:57;;;;;;;2.58;2.38;;;;;;;13.82;100.00;102083.63;10500303;28;20111;-69
2023/08/10 01:53:02;;;;;;;2.25;2.10;;;;;;;13.72;100.00;102092.91;10500430;28;20036;-69
2023/08/10 01:58:03;;;;;;;2.67;2.45;;;;;;;13.70;100.00;102094.13;10499737;28;20320;-69
2023/08/10 02:03:04;;;;;;;2.35;2.10;;;;;;;13.67;100.00;102095.34;10499133;28;20114;-69
2023/08/10 02:08:06;;;;;;;2.58;2.47;;;;;;;13.64;100.00;102093.00;10497479;28;20037;-69
2023/08/10 02:13:07;;;;;;;3.55;2.85;;;;;;;13.61;100.00;102096.09;10499112;28;20043;-69
2023/08/10 02:18:10;;;;;;;7.32;1.73;;;;;;;13.59;100.00;102102.75;10498096;28;20044;-69
2023/08/10 02:23:11;;;;;;;9.77;2.30;;;;;;;13.56;100.00;102104.00;10498611;28;20028;-69
2023/08/10 02:28:11;;;;;;;2.97;2.08;;;;;;;13.57;100.00;102094.81;10499915;28;20044;-69
2023/08/10 02:33:12;;;;;;;3.00;2.67;;;;;;;13.53;100.00;102093.50;10481284;28;20479;-69
2023/08/10 02:38:12;;;;;;;4.00;3.60;;;;;;;13.56;100.00;102100.41;10498138;28;20036;-69
2023/08/10 02:43:12;;;;;;;4.25;3.85;;;;;;;13.58;100.00;102099.19;10498146;28;20456;-69
2023/08/10 02:48:13;;;;;;;4.60;3.25;;;;;;;13.56;100.00;102095.84;10497699;28;20081;-69
2023/08/10 02:53:13;;;;;;;10.73;4.38;;;;;;;13.65;100.00;102102.00;10497746;28;20033;-69
2023/08/10 02:58:14;;;;;;;7.82;3.33;;;;;;;13.71;100.00;102093.94;10497584;28;20039;-69
2023/08/10 03:03:14;;;;;;;8.82;4.05;;;;;;;13.76;100.00;102104.28;10496347;28;20080;-69
2023/08/10 03:08:15;;;;;;;4.80;3.67;;;;;;;13.80;100.00;102102.00;10496898;28;20122;-69
2023/08/10 03:13:15;;;;;;;5.35;3.30;;;;;;;13.75;100.00;102093.56;10496197;28;20457;-69
2023/08/10 03:18:16;;;;;;;4.75;3.85;;;;;;;13.71;100.00;102093.09;10497577;28;20114;-69
2023/08/10 03:23:16;;;;;;;6.10;3.45;;;;;;;13.66;100.00;102085.50;10496585;28;20086;-69
2023/08/10 03:28:17;;;;;;;6.05;4.07;;;;;;;13.65;100.00;102097.41;10496636;28;20039;-69
2023/08/10 03:33:17;;;;;;;13.00;4.20;;;;;;;13.71;100.00;102091.22;10480098;28;20033;-69
2023/08/10 03:38:17;;;;;;;8.30;4.43;;;;;;;13.89;100.00;102092.72;10496784;28;20492;-69
2023/08/10 03:43:18;;;;;;;8.40;5.57;;;;;;;14.05;100.00;102097.94;10495861;28;20048;-69
2023/08/10 03:48:18;;;;;;;8.63;4.53;;;;;;;14.18;100.00;102097.25;10496951;28;20028;-69
2023/08/10 03:53:19;;;;;;;8.43;4.38;;;;;;;14.29;100.00;102098.59;10496714;28;20032;-69
2023/08/10 03:58:19;;;;;;;3.20;2.85;;;;;;;14.37;100.00;102084.88;10503317;28;20497;-69
2023/08/10 04:03:20;;;;;;;8.15;4.65;;;;;;;14.52;100.00;102102.06;10502511;28;20056;-69
2023/08/10 04:08:20;;;;;;;5.15;3.80;;;;;;;14.61;100.00;102100.03;10504011;28;20435;-69
2023/08/10 04:13:21;;;;;;;14.07;4.55;;;;;;;14.68;100.00;102103.69;10504596;28;20040;-70
2023/08/10 04:18:21;;;;;;;8.88;3.92;;;;;;;14.76;100.00;102105.41;10503358;28;20024;-69
2023/08/10 04:23:21;;;;;;;6.43;3.80;;;;;;;14.83;100.00;102101.69;10503406;28;20045;-69
2023/08/10 04:28:22;;;;;;;3.67;3.38;;;;;;;14.89;100.00;102100.91;10504165;28;20074;-69
2023/08/10 04:33:23;;;;;;;4.40;4.00;;;;;;;14.99;100.00;102091.53;10503461;28;20047;-69
2023/08/10 04:38:23;;;;;;;3.88;3.55;;;;;;;15.04;100.00;102092.66;10502774;28;20025;-70
2023/08/10 04:43:23;;;;;;;6.38;3.30;;;;;;;15.09;100.00;102089.31;10503059;28;20048;-71
2023/08/10 04:48:24;;;;;;;8.30;4.20;;;;;;;15.18;100.00;102081.81;10502206;28;20533;-71
2023/08/10 04:53:24;;;;;;;4.75;4.35;;;;;;;15.26;100.00;102084.41;10502253;28;20040;-71
2023/08/10 04:58:25;;;;;;;8.23;4.28;;;;;;;15.33;100.00;102088.88;10502317;28;20037;-70
2023/08/10 05:03:26;;;;;;;10.10;3.83;;;;;;;15.46;100.00;102090.00;10502095;28;20029;-70
2023/08/10 05:08:26;;;;;;;7.20;4.55;;;;;;;15.55;100.00;102089.63;10501578;28;20070;-70
2023/08/10 05:13:27;;;;;;;4.25;3.85;;;;;;;15.61;100.00;102089.88;10501584;28;20055;-70
2023/08/10 05:18:27;;;;;;;4.72;3.47;;;;;;;15.65;100.00;102082.97;10501788;28;20040;-70
2023/08/10 05:23:27;;;;;;;3.88;3.17;;;;;;;15.74;100.00;102098.16;10500573;28;20432;-70
2023/08/10 05:28:28;;;;;;;7.05;3.92;;;;;;;15.83;100.00;102096.13;10501448;28;20036;-70
2023/08/10 05:33:29;;;;;;;3.92;3.58;;;;;;;15.91;100.00;102099.50;10500956;28;20549;-70
2023/08/10 05:38:30;;;;;;;5.25;3.63;;;;;;;15.99;100.00;102093.03;10501358;28;20037;-70
2023/08/10 05:43:30;;;;;;;4.40;3.95;;;;;;;16.11;100.00;102104.19;10500207;28;20056;-70
2023/08/10 05:48:30;;;;;;;5.93;3.60;;;;;;;16.19;100.00;102109.50;10499576;28;20139;-70
2023/08/10 05:53:31;;;;;;;7.18;4.78;;;;;;;16.23;100.00;102105.28;10499976;28;20029;-70
2023/08/10 05:58:31;;;;;;;7.20;4.95;;;;;;;16.34;100.00;102101.13;10498968;28;20502;-70
2023/08/10 06:03:32;;;;;;;7.63;3.67;;;;;;;16.48;100.00;102095.47;10500517;28;20037;-70
2023/08/10 06:08:33;;;;;;;9.75;3.72;;;;;;;16.67;100.00;102092.97;10499257;28;20070;-70
2023/08/10 06:13:35;;;;;;;5.03;3.65;;;;;;;16.92;100.00;102094.06;10500257;28;20062;-70
2023/08/10 06:18:35;;;;;;;3.80;3.50;;;;;;;17.10;100.00;102092.56;10497587;28;20502;-70
2023/08/10 06:23:35;;;;;;;5.95;4.30;;;;;;;17.23;100.00;102095.31;10498599;28;20043;-70
2023/08/10 06:28:36;;;;;;;5.47;3.60;;;;;;;17.36;100.00;102097.19;10498529;28;20170;-70
2023/08/10 06:33:36;;;;;;;4.10;3.60;;;;;;;17.61;100.00;102095.44;10496870;28;20406;-70
2023/08/10 06:38:37;;;;;;;5.90;3.45;;;;;;;17.90;100.00;102101.50;10497962;28;20052;-70
2023/08/10 06:43:37;;;;;;;4.47;3.80;;;;;;;18.16;100.00;102092.31;10480152;28;20103;-70
2023/08/10 06:48:38;;;;;;;7.88;4.57;;;;;;;18.46;100.00;102099.94;10499031;28;20426;-70
2023/08/10 06:53:38;;;;;;;7.07;4.03;;;;;;;18.77;100.00;102097.22;10497725;28;20396;-70
2023/08/10 06:58:38;;;;;;;6.38;5.03;;;;;;;19.03;100.00;102101.63;10496900;28;20119;-70
2023/08/10 07:03:39;;;;;;;5.22;3.95;;;;;;;19.01;100.00;102100.16;10479702;28;20488;-70
2023/08/10 07:08:39;;;;;;;7.43;4.10;;;;;;;19.24;100.00;102094.03;10498947;28;20032;-70
2023/08/10 07:13:41;;;;;;;7.75;4.78;;;;;;;19.33;100.00;102091.84;10498917;28;20394;-70
2023/08/10 07:18:41;;;;;;;4.78;3.55;;;;;;;19.46;100.00;102099.94;10496432;28;20033;-70
2023/08/10 07:23:42;;;;;;;4.35;3.92;;;;;;;19.76;100.00;102096.50;10495937;28;20033;-70
2023/08/10 07:28:43;;;;;;;4.95;4.38;;;;;;;19.89;100.00;102099.06;10499329;28;20072;-70
2023/08/10 07:33:43;;;;;;;4.18;3.83;;;;;;;19.93;100.00;102111.28;10505363;28;20033;-70
2023/08/10 07:38:43;;;;;;;12.23;4.60;;;;;;;20.12;100.00;102107.44;10503453;28;20116;-70
2023/08/10 07:43:44;;;;;;;6.07;5.38;;;;;;;20.20;100.00;102106.31;10504550;28;20043;-70
2023/08/10 07:48:45;;;;;;;15.77;5.32;;;;;;;20.28;100.00;102110.63;10505956;28;20066;-70
2023/08/10 07:53:46;;;;;;;6.43;4.22;;;;;;;20.51;100.00;102107.97;10503439;28;20043;-70
2023/08/10 07:58:46;;;;;;;9.50;5.07;;;;;;;20.86;100.00;102109.97;10504751;28;20478;-70
2023/08/10 08:03:46;;;;;;;9.43;3.67;;;;;;;20.97;100.00;102116.59;10505376;28;20115;-70
2023/08/10 08:08:47;;;;;;;8.15;4.30;;;;;;;20.93;100.00;102121.75;10504265;28;20082;-70
2023/08/10 08:13:47;;;;;;;5.13;3.47;;;;;;;20.82;100.00;102125.31;10503132;28;20037;-70
2023/08/10 08:18:49;;;;;;;3.67;3.30;;;;;;;20.79;100.00;102112.84;10502777;28;20038;-70
2023/08/10 08:23:50;;;;;;;3.55;3.20;;;;;;;20.90;100.00;102114.78;10503153;28;20037;-70
2023/08/10 08:28:50;;;;;;;2.10;2.00;;;;;;;21.24;100.00;102114.22;10518940;28;20032;-70
2023/08/10 08:33:51;;;;;;;5.32;3.40;;;;;;;21.38;100.00;102114.81;10485321;28;20119;-70
2023/08/10 08:38:51;;;;;;;3.67;3.35;;;;;;;21.30;100.00;102122.34;10502884;28;20111;-70
2023/08/10 08:43:52;;;;;;;8.18;4.18;;;;;;;21.11;100.00;102118.88;10502766;28;20048;-70
2023/08/10 08:48:52;;;;;;;5.97;4.05;;;;;;;21.08;100.00;102122.09;10501580;28;20052;-70
2023/08/10 08:53:53;;;;;;;4.95;4.13;;;;;;;21.15;100.00;102124.75;10501159;28;20036;-70
2023/08/10 08:58:53;;;;;;;3.60;3.25;;;;;;;21.36;100.00;102107.66;10500867;28;20398;-70
2023/08/10 09:03:54;;;;;;;3.85;2.88;;;;;;;21.57;100.00;102119.16;10502046;28;20064;-70
2023/08/10 09:08:54;;;;;;;6.10;3.08;;;;;;;21.71;100.00;102109.53;10500595;28;20032;-70
2023/08/10 09:14:05;;;;;;;3.70;3.03;;;;;;;21.95;100.00;102098.44;10501657;28;20036;-70
2023/08/10 09:19:10;;;;;;;5.50;3.20;;;;;;;22.27;100.00;102096.06;10500136;28;20482;-70
2023/08/10 09:24:10;;;;;;;6.40;2.90;;;;;;;22.50;100.00;102101.47;10501116;28;20417;-70
2023/08/10 09:29:11;;;;;;;5.45;3.47;;;;;;;22.40;99.31;102101.31;10501181;28;20064;-70
2023/08/10 09:34:13;;;;;;;13.18;4.22;;;;;;;22.36;97.76;102110.31;10500219;28;20040;-70
2023/08/10 09:39:16;;;;;;;4.00;3.65;;;;;;;22.00;86.97;102109.59;10482602;28;20067;-70
2023/08/10 09:44:16;;;;;;;4.75;3.08;;;;;;;22.47;95.10;102107.50;10481682;28;20032;-70
2023/08/10 09:49:17;;;;;;;2.08;1.98;;;;;;;22.93;96.10;102126.78;10500068;28;20449;-70
2023/08/10 09:54:17;;;;;;;3.45;2.80;;;;;;;23.05;84.66;102119.28;10498534;28;20040;-70
2023/08/10 09:59:18;;;;;;;2.13;2.03;;;;;;;22.85;87.13;102119.78;10498326;28;20033;-70
2023/08/10 10:04:18;;;;;;;2.47;2.30;;;;;;;23.48;90.26;102108.59;10498138;28;20460;-70
2023/08/10 10:09:19;;;;;;;3.20;2.72;;;;;;;24.07;90.16;102100.56;10499227;28;20082;-70
2023/08/10 10:14:19;;;;;;;4.25;2.45;;;;;;;24.66;79.42;102100.63;10497851;28;20064;-71
2023/08/10 10:19:20;;;;;;;2.72;2.53;;;;;;;24.77;81.29;102102.41;10498718;28;20071;-70
2023/08/10 10:24:20;;;;;;;4.00;2.38;;;;;;;25.13;78.69;102099.94;10499129;28;20038;-70
2023/08/10 10:29:21;;;;;;;2.00;1.90;;;;;;;25.53;77.50;102093.00;10498879;28;20064;-70
2023/08/10 10:34:22;;;;;;;2.28;1.67;;;;;;;25.89;72.31;102096.78;10498935;28;20075;-70
2023/08/10 10:39:22;;;;;;;2.33;2.17;;;;;;;26.07;61.79;102094.59;10496619;28;20058;-71
2023/08/10 10:44:22;;;;;;;2.85;2.65;;;;;;;26.21;69.83;102095.78;10496337;28;20029;-70
2023/08/10 10:49:23;;;;;;;2.70;2.50;;;;;;;26.97;69.89;102095.03;10499637;28;20349;-71
2023/08/10 10:54:25;;;;;;;5.38;1.92;;;;;;;27.53;69.51;102091.34;10496160;28;20051;-71
2023/08/10 10:59:26;;;;;;;2.20;2.03;;;;;;;28.79;65.04;102079.78;10497125;28;20028;-71
2023/08/10 11:04:26;;;;;;;6.07;2.35;;;;;;;30.27;61.92;102089.28;10479165;28;20036;-71
2023/08/10 11:09:27;;;;;;;3.47;1.92;;;;;;;29.96;58.09;102079.66;10496768;28;20033;-71
2023/08/10 11:14:28;;;;;;;3.03;2.80;;;;;;;29.52;54.20;102070.41;10479843;28;20063;-71
2023/08/10 11:19:30;;;;;;;2.30;2.10;;;;;;;29.72;60.26;102077.72;10494830;28;20060;-71
2023/08/10 11:24:30;;;;;;;1.98;1.77;;;;;;;29.69;55.79;102081.13;10497465;28;20039;-71
2023/08/10 11:29:30;;;;;;;1.88;1.75;;;;;;;28.89;58.97;102085.25;10496685;28;20029;-71
2023/08/10 11:34:33;;;;;;;1.55;1.45;;;;;;;29.06;63.26;102075.66;10496272;28;20033;-71
2023/08/10 11:39:35;;;;;;;3.95;1.90;;;;;;;29.30;59.58;102075.69;10497020;28;20036;-71
2023/08/10 11:44:43;;;;;;;4.10;1.88;;;;;;;29.40;56.77;102070.00;10496184;28;20093;-70
2023/08/10 11:49:43;;;;;;;2.28;2.10;;;;;;;29.98;52.58;102071.81;10511730;28;20056;-71
2023/08/10 11:54:52;;;;;;;1.65;1.55;;;;;;;29.82;56.08;102068.38;10494132;28;20047;-71
2023/08/10 11:59:52;;;;;;;2.28;2.05;;;;;;;29.96;60.18;102082.44;10494807;28;20452;-71
2023/08/10 12:05:00;;;;;;;1.65;1.55;;;;;;;29.64;55.31;102062.50;10494751;28;20040;-71
2023/08/10 12:10:01;;;;;;;2.33;2.15;;;;;;;29.68;56.99;102054.34;10496458;28;20053;-71
2023/08/10 12:15:12;;;;;;;2.22;1.65;;;;;;;30.40;55.42;102056.94;10497977;28;20040;-71
2023/08/10 12:20:13;;;;;;;1.65;1.63;;;;;;;30.65;57.88;102050.09;10504212;28;20029;-70
2023/08/10 12:25:13;;;;;;;4.10;2.78;;;;;;;30.68;54.00;102057.88;10503220;28;20032;-71
2023/08/10 12:30:14;;;;;;;15.80;3.55;;;;;;;29.93;52.87;102066.28;10502133;28;20036;-70
2023/08/10 12:35:15;;;;;;;2.30;2.10;;;;;;;30.07;54.95;102059.66;10501235;28;20398;-70
2023/08/10 12:40:16;;;;;;;2.92;2.70;;;;;;;30.52;48.60;102059.28;10502102;28;20036;-71
2023/08/10 12:45:17;;;;;;;2.25;2.08;;;;;;;30.57;39.53;102056.41;10501755;28;20080;-71
2023/08/10 12:50:18;;;;;;;2.78;2.58;;;;;;;29.42;42.17;102057.41;10503491;28;20506;-70
2023/08/10 12:55:18;;;;;;;4.40;2.33;;;;;;;29.77;47.52;102058.13;10500767;28;20036;-70
2023/08/10 13:00:20;;;;;;;2.85;2.65;;;;;;;29.56;45.29;102062.28;10501253;28;20116;-70
2023/08/10 13:05:20;;;;;;;3.35;2.53;;;;;;;29.91;47.93;102058.22;10502188;28;20602;-70
2023/08/10 13:10:22;;;;;;;4.15;2.45;;;;;;;30.27;51.10;102050.16;10502828;28;20039;-70
2023/08/10 13:15:23;;;;;;;2.42;2.25;;;;;;;30.74;51.85;102055.84;10500038;28;20032;-71
2023/08/10 13:20:23;;;;;;;2.13;1.95;;;;;;;30.62;51.78;102053.50;10500782;28;20435;-70
2023/08/10 13:25:24;;;;;;;3.05;2.00;;;;;;;30.22;51.49;102047.47;10498721;28;20464;-70
2023/08/10 13:30:24;;;;;;;8.85;2.30;;;;;;;29.91;51.77;102052.63;10500650;28;20060;-71
2023/08/10 13:35:24;;;;;;;2.22;2.08;;;;;;;29.92;54.58;102061.84;10501653;28;20033;-70
2023/08/10 13:40:25;;;;;;;2.05;1.67;;;;;;;29.81;43.14;102056.41;10499281;28;20060;-70
2023/08/10 13:45:25;;;;;;;8.83;1.90;;;;;;;30.20;48.47;102048.88;10499251;28;20075;-72
2023/08/10 13:50:26;;;;;;;2.97;2.25;;;;;;;29.48;49.58;102054.53;10499776;28;20276;-71
2023/08/10 13:55:26;;;;;;;3.30;1.80;;;;;;;29.93;47.46;102043.94;10500367;28;20117;-71
2023/08/10 14:00:26;;;;;;;2.33;2.13;;;;;;;30.11;51.90;102049.53;10514496;28;20108;-71
2023/08/10 14:05:27;;;;;;;3.63;3.17;;;;;;;31.38;50.96;102030.91;10499187;28;20460;-71
2023/08/10 14:10:27;;;;;;;2.08;1.95;;;;;;;30.86;53.41;102031.03;10497750;28;20131;-70
2023/08/10 14:15:28;;;;;;;2.67;1.80;;;;;;;29.50;51.61;102021.59;10499451;28;20037;-71
2023/08/10 14:20:28;;;;;;;2.05;1.95;;;;;;;29.64;50.13;102016.97;10498949;28;20039;-70
2023/08/10 14:25:28;;;;;;;5.70;2.77;;;;;;;30.30;50.61;102013.22;10497774;28;20036;-70
2023/08/10 14:30:29;;;;;;;4.53;2.25;;;;;;;30.60;53.69;102013.88;10496946;28;20273;-71
2023/08/10 14:35:29;;;;;;;4.60;2.10;;;;;;;31.09;53.48;102009.63;10498692;28;20464;-70
2023/08/10 14:40:30;;;;;;;2.73;2.37;;;;;;;30.51;55.21;102018.50;10496750;28;20041;-71
2023/08/10 14:45:30;;;;;;;2.53;2.13;;;;;;;30.32;53.63;102010.97;10497648;28;20289;-71
2023/08/10 14:50:30;;;;;;;3.97;2.40;;;;;;;29.58;47.36;102012.53;10498273;28;20377;-71
2023/08/10 14:55:31;;;;;;;2.07;1.97;;;;;;;29.01;51.82;102003.22;10495977;28;20269;-71
2023/08/10 15:00:31;;;;;;;6.60;2.50;;;;;;;28.94;53.53;102004.38;10497310;28;20292;-70
2023/08/10 15:05:32;;;;;;;5.00;2.72;;;;;;;28.91;53.51;101991.00;10496080;28;20276;-70
2023/08/10 15:10:32;;;;;;;3.28;2.35;;;;;;;28.60;53.82;101992.44;10497268;28;20029;-71
2023/08/10 15:15:32;;;;;;;8.48;2.67;;;;;;;27.97;49.73;101980.09;10496483;28;20094;-71
2023/08/10 15:20:33;;;;;;;6.50;2.95;;;;;;;27.74;53.03;101972.41;10494410;28;20043;-70
2023/08/10 15:25:33;;;;;;;5.28;3.17;;;;;;;27.21;49.83;101980.44;10495778;28;20040;-71
2023/08/10 15:30:33;;;;;;;5.97;3.20;;;;;;;27.09;53.29;101976.03;10495515;28;20460;-71
2023/08/10 15:35:34;;;;;;;2.55;2.40;;;;;;;27.25;54.97;101978.75;10495722;28;20050;-71
2023/08/10 15:40:34;;;;;;;2.47;2.28;;;;;;;26.67;52.47;101979.16;10496211;28;20028;-70
2023/08/10 15:45:35;;;;;;;1.92;1.83;;;;;;;26.49;54.27;101975.03;10495967;28;20064;-70
2023/08/10 15:50:35;;;;;;;2.60;1.90;;;;;;;26.73;54.72;101975.25;10498850;28;20032;-70
2023/08/10 15:55:36;;;;;;;2.50;2.28;;;;;;;26.64;54.45;101968.59;10504128;28;20150;-70
2023/08/10 16:00:37;;;;;;;5.03;2.88;;;;;;;26.16;55.11;101981.91;10504167;28;20028;-70
2023/08/10 16:05:37;;;;;;;3.13;2.78;;;;;;;25.95;55.66;101979.13;10503964;28;20037;-70
2023/08/10 16:10:37;;;;;;;4.70;2.88;;;;;;;25.48;55.45;101968.97;10503418;28;20036;-71
2023/08/10 16:15:39;;;;;;;20.27;2.95;;;;;;;25.05;55.97;101975.69;10503178;28;20064;-70
2023/08/10 16:20:43;;;;;;;7.22;1.90;;;;;;;24.91;56.56;101978.09;10501355;28;20047;-70
2023/08/10 16:25:43;;;;;;;2.55;2.35;;;;;;;24.81;56.77;101978.03;10502002;28;20029;-70
2023/08/10 16:30:44;;;;;;;7.40;2.75;;;;;;;24.67;56.96;101974.06;10502918;28;20036;-70
2023/08/10 16:35:44;;;;;;;2.47;2.25;;;;;;;24.55;56.58;101980.63;10502398;28;20036;-70
2023/08/10 16:40:44;;;;;;;3.03;2.83;;;;;;;24.43;56.91;101982.75;10502350;28;20488;-70
2023/08/10 16:45:45;;;;;;;4.30;2.45;;;;;;;24.28;56.75;101982.56;10500332;28;20048;-70
2023/08/10 16:50:46;;;;;;;3.50;2.42;;;;;;;24.10;56.63;101981.88;10501914;28;20040;-70
2023/08/10 16:55:46;;;;;;;2.13;2.03;;;;;;;24.01;56.54;101977.91;10500528;28;20518;-70
2023/08/10 17:00:46;;;;;;;4.38;1.90;;;;;;;23.85;56.79;101976.06;10501190;28;20082;-70
2023/08/10 17:05:47;;;;;;;2.22;2.08;;;;;;;23.75;57.67;101987.03;10501034;28;20021;-70
2023/08/10 17:10:47;;;;;;;4.65;3.83;;;;;;;23.60;57.94;101982.97;10500711;28;20442;-70
2023/08/10 17:15:48;;;;;;;2.70;2.28;;;;;;;23.48;58.18;101976.72;10499982;28;20037;-70
2023/08/10 17:20:48;;;;;;;5.13;2.63;;;;;;;23.43;58.37;101988.56;10500172;28;20044;-70
2023/08/10 17:25:50;;;;;;;5.50;4.47;;;;;;;23.34;58.95;101976.28;10500382;28;20101;-70
2023/08/10 17:30:51;;;;;;;4.70;2.60;;;;;;;23.32;59.30;101972.09;10499188;28;20093;-70
2023/08/10 17:35:51;;;;;;;3.67;2.50;;;;;;;23.24;59.50;101986.38;10500096;28;20441;-70
2023/08/10 17:40:53;;;;;;;2.65;2.45;;;;;;;23.17;59.61;101992.09;10499856;28;20051;-70
2023/08/10 17:45:53;;;;;;;11.90;2.53;;;;;;;23.08;60.14;101990.88;10498111;28;20067;-70
2023/08/10 17:50:54;;;;;;;5.28;2.20;;;;;;;22.98;60.41;101989.63;10499460;28;20518;-70
2023/08/10 17:55:55;;;;;;;4.55;3.30;;;;;;;22.89;60.59;101982.00;10499092;28;20056;-70
2023/08/10 18:01:09;;;;;;;9.50;2.42;;;;;;;22.79;61.01;101974.41;10497929;28;20037;-70
2023/08/10 18:06:09;;;;;;;2.15;2.00;;;;;;;22.72;61.31;101982.03;10498230;28;20033;-70
2023/08/10 18:11:09;;;;;;;2.70;2.50;;;;;;;22.63;61.70;101969.75;10499272;28;20510;-70
2023/08/10 18:16:11;;;;;;;3.30;3.00;;;;;;;22.55;62.24;101973.72;10497681;28;20151;-70
2023/08/10 18:21:11;;;;;;;5.93;2.47;;;;;;;22.48;62.46;101976.66;10498069;28;20387;-70
2023/08/10 18:26:12;;;;;;;2.88;2.45;;;;;;;22.29;63.04;101961.44;10498790;28;20043;-71
2023/08/10 18:31:12;;;;;;;3.95;2.22;;;;;;;22.15;63.58;101965.59;10498045;28;20036;-71
2023/08/10 18:36:13;;;;;;;2.75;2.45;;;;;;;22.00;63.88;101961.47;10497179;28;20036;-70
2023/08/10 18:41:14;;;;;;;2.55;2.15;;;;;;;21.85;64.19;101963.94;10498355;28;20092;-70
2023/08/10 18:46:14;;;;;;;3.35;2.53;;;;;;;21.71;65.00;101963.41;10496809;28;20139;-71
2023/08/10 18:51:15;;;;;;;5.47;2.70;;;;;;;21.59;65.35;101976.41;10496390;28;20070;-72
2023/08/10 18:56:15;;;;;;;8.13;2.25;;;;;;;21.41;65.59;101980.19;10497000;28;20047;-71
2023/08/10 19:01:16;;;;;;;5.53;2.30;;;;;;;21.22;66.12;101964.84;10496761;28;20036;-71
2023/08/10 19:06:16;;;;;;;1.85;1.75;;;;;;;21.09;66.72;101968.69;10494499;28;20025;-70
2023/08/10 19:11:16;;;;;;;4.03;3.10;;;;;;;20.94;67.43;101962.88;10497090;28;20040;-70
2023/08/10 19:16:17;;;;;;;2.88;1.90;;;;;;;20.75;67.89;101967.66;10496433;28;20067;-70
2023/08/10 19:21:17;;;;;;;3.65;3.20;;;;;;;20.54;69.88;101966.31;10496767;28;20487;-69
2023/08/10 19:26:18;;;;;;;3.53;2.83;;;;;;;20.35;72.90;101960.88;10496210;28;20032;-71
2023/08/10 19:31:19;;;;;;;5.55;3.63;;;;;;;20.23;74.13;101964.69;10496721;28;20090;-71
2023/08/10 19:36:19;;;;;;;2.35;2.15;;;;;;;20.12;74.25;101975.44;10511613;28;20034;-70
2023/08/10 19:41:20;;;;;;;7.57;3.58;;;;;;;20.00;74.87;101977.31;10494789;28;20461;-69
2023/08/10 19:46:21;;;;;;;5.80;3.75;;;;;;;19.92;73.90;101985.91;10495856;28;20552;-70
2023/08/10 19:51:21;;;;;;;3.22;2.97;;;;;;;19.83;73.86;101990.03;10495454;28;20029;-71
2023/08/10 19:56:22;;;;;;;3.80;3.40;;;;;;;19.76;74.18;101994.81;10495115;28;20059;-71
2023/08/10 20:01:22;;;;;;;4.85;3.55;;;;;;;19.68;73.91;101996.78;10496676;28;20025;-71
2023/08/10 20:06:23;;;;;;;7.45;3.05;;;;;;;19.64;74.14;101995.56;10495519;28;20494;-70
2023/08/10 20:11:24;;;;;;;3.40;2.78;;;;;;;19.58;75.81;101990.97;10494769;28;20456;-69
2023/08/10 20:16:25;;;;;;;3.70;3.17;;;;;;;19.55;75.30;101993.34;10494062;28;20433;-70
2023/08/10 20:21:26;;;;;;;8.38;3.40;;;;;;;19.52;76.66;101994.63;10493784;28;20028;-70
2023/08/10 20:26:26;;;;;;;5.63;3.50;;;;;;;19.47;77.38;101994.50;10495875;28;20078;-70
2023/08/10 20:31:27;;;;;;;3.58;3.20;;;;;;;19.41;76.91;101998.16;10477214;28;20047;-70
2023/08/10 20:36:29;;;;;;;6.68;2.22;;;;;;;19.29;76.99;101996.19;10496376;28;20040;-70
2023/08/10 20:41:29;;;;;;;9.52;3.65;;;;;;;19.21;77.25;101999.25;10502533;28;20242;-71
2023/08/10 20:46:30;;;;;;;5.18;4.18;;;;;;;19.14;79.48;101990.22;10502744;28;20499;-72
2023/08/10 20:51:30;;;;;;;6.22;3.15;;;;;;;19.11;80.78;101998.91;10502187;28;20028;-71
2023/08/10 20:56:31;;;;;;;3.75;3.30;;;;;;;19.05;79.70;101999.84;10500446;28;20044;-70
2023/08/10 21:01:31;;;;;;;4.93;4.00;;;;;;;18.93;81.44;101993.41;10502718;28;20081;-71
2023/08/10 21:06:31;;;;;;;8.68;3.80;;;;;;;18.82;83.23;101989.50;10501527;28;20043;-71
2023/08/10 21:11:32;;;;;;;11.38;4.28;;;;;;;18.75;83.10;101991.47;10501576;28;20029;-70
2023/08/10 21:16:32;;;;;;;6.57;4.75;;;;;;;18.75;84.91;101994.22;10500612;28;20032;-71
2023/08/10 21:21:33;;;;;;;5.35;4.22;;;;;;;18.74;87.52;101978.81;10501015;28;20051;-71
2023/08/10 21:26:33;;;;;;;11.80;6.03;;;;;;;18.76;87.50;101983.03;10500371;28;20139;-70
2023/08/10 21:31:34;;;;;;;8.23;5.80;;;;;;;18.72;88.00;101992.75;10498874;28;20480;-71
2023/08/10 21:36:34;;;;;;;8.27;6.65;;;;;;;18.69;88.29;101990.44;10501568;28;20112;-70
2023/08/10 21:41:35;;;;;;;5.85;5.25;;;;;;;18.65;88.19;101993.84;10499690;28;20036;-70
2023/08/10 21:46:36;;;;;;;13.85;7.90;;;;;;;18.59;88.78;101992.84;10498619;28;20487;-70
2023/08/10 21:51:36;;;;;;;10.45;9.20;;;;;;;18.54;88.31;101993.53;10498295;28;20189;-70
2023/08/10 21:56:37;;;;;;;12.18;9.55;;;;;;;18.49;88.71;102000.75;10498880;28;20036;-70
2023/08/10 22:01:37;;;;;;;10.88;7.40;;;;;;;18.42;89.45;101986.25;10499561;28;20028;-70
2023/08/10 22:06:38;;;;;;;14.75;9.25;;;;;;;18.38;91.74;101990.47;10498654;28;20086;-70
2023/08/10 22:11:38;;;;;;;10.20;8.52;;;;;;;18.33;93.53;101993.91;10499010;28;20036;-70
2023/08/10 22:16:39;;;;;;;14.38;9.35;;;;;;;18.28;94.81;101994.59;10498959;28;20051;-70
2023/08/10 22:21:39;;;;;;;12.27;9.27;;;;;;;18.24;95.01;101992.50;10498466;28;20035;-70
2023/08/10 22:26:39;;;;;;;18.77;9.82;;;;;;;18.21;95.23;101995.69;10497085;28;20044;-70
2023/08/10 22:31:40;;;;;;;12.05;10.65;;;;;;;18.16;95.56;101993.63;10498016;28;20032;-70
2023/08/10 22:36:40;;;;;;;14.43;9.25;;;;;;;18.08;96.98;101993.88;10497998;28;20036;-70
2023/08/10 22:41:41;;;;;;;10.60;8.95;;;;;;;18.03;100.00;101989.06;10498747;28;20029;-70
2023/08/10 22:46:42;;;;;;;9.38;8.38;;;;;;;18.00;100.00;101983.19;10498760;28;20049;-70
2023/08/10 22:51:42;;;;;;;12.27;9.02;;;;;;;17.93;100.00;101979.63;10496324;28;20086;-70